sensor_id;sensor_type;location;lat;lon;timestamp;pressure;altitude;pressure_sealevel;temperature;humidity
21706;BME280;11014;53.076;18.208;2023-01-28T00:01:29;102353.69;;;3.14;55.42
21706;BME280;11014;53.076;18.208;2023-01-28T00:03:57;102350.03;;;3.15;55.52
21706;BME280;11014;53.076;18.208;2023-01-28T00:06:26;102347.66;;;3.12;55.76
21706;BME280;11014;53.076;18.208;2023-01-28T00:08:57;102346.69;;;3.13;55.87
21706;BME280;11014;53.076;18.208;2023-01-28T00:11:33;102349.47;;;3.21;55.78
21706;BME280;11014;53.076;18.208;2023-01-28T00:14:01;102339.56;;;3.23;55.72
21706;BME280;11014;53.076;18.208;2023-01-28T00:16:32;102346.97;;;3.29;55.92
21706;BME280;11014;53.076;18.208;2023-01-28T00:19:00;102353.25;;;3.38;55.85
21706;BME280;11014;53.076;18.208;2023-01-28T00:21:29;102349.75;;;3.37;56.02
21706;BME280;11014;53.076;18.208;2023-01-28T00:23:57;102349.75;;;3.37;56.19
21706;BME280;11014;53.076;18.208;2023-01-28T00:26:31;102344.16;;;3.40;56.21
21706;BME280;11014;53.076;18.208;2023-01-28T00:29:00;102348.50;;;3.41;56.23
21706;BME280;11014;53.076;18.208;2023-01-28T00:31:29;102345.84;;;3.41;56.37
21706;BME280;11014;53.076;18.208;2023-01-28T00:34:00;102345.84;;;3.41;56.35
21706;BME280;11014;53.076;18.208;2023-01-28T00:36:29;102347.66;;;3.41;56.51
21706;BME280;11014;53.076;18.208;2023-01-28T00:38:58;102343.59;;;3.46;56.45
21706;BME280;11014;53.076;18.208;2023-01-28T00:41:28;102331.28;;;3.45;56.05
21706;BME280;11014;53.076;18.208;2023-01-28T00:43:58;102340.66;;;3.49;56.07
21706;BME280;11014;53.076;18.208;2023-01-28T00:46:27;102343.31;;;3.49;56.32
21706;BME280;11014;53.076;18.208;2023-01-28T00:48:55;102341.06;;;3.54;56.36
21706;BME280;11014;53.076;18.208;2023-01-28T00:51:24;102341.06;;;3.54;56.26
21706;BME280;11014;53.076;18.208;2023-01-28T00:53:53;102342.47;;;3.49;55.81
21706;BME280;11014;53.076;18.208;2023-01-28T00:56:21;102345.13;;;3.49;55.84
21706;BME280;11014;53.076;18.208;2023-01-28T00:58:50;102346.66;;;3.51;56.05
21706;BME280;11014;53.076;18.208;2023-01-28T01:01:22;102344.97;;;3.50;56.02
21706;BME280;11014;53.076;18.208;2023-01-28T01:03:52;102343.00;;;3.52;56.03
21706;BME280;11014;53.076;18.208;2023-01-28T01:06:34;102339.94;;;3.47;56.11
21706;BME280;11014;53.076;18.208;2023-01-28T01:09:07;102345.53;;;3.44;55.88
21706;BME280;11014;53.076;18.208;2023-01-28T01:11:36;102349.03;;;3.45;55.82
21706;BME280;11014;53.076;18.208;2023-01-28T01:14:05;102347.50;;;3.42;55.85
21706;BME280;11014;53.076;18.208;2023-01-28T01:16:34;102349.75;;;3.37;56.08
21706;BME280;11014;53.076;18.208;2023-01-28T01:19:03;102353.25;;;3.38;56.02
21706;BME280;11014;53.076;18.208;2023-01-28T01:21:32;102338.84;;;3.40;56.21
21706;BME280;11014;53.076;18.208;2023-01-28T01:24:00;102352.81;;;3.42;55.99
21706;BME280;11014;53.076;18.208;2023-01-28T01:26:29;102347.50;;;3.42;56.08
21706;BME280;11014;53.076;18.208;2023-01-28T01:28:57;102344.16;;;3.40;56.45
21706;BME280;11014;53.076;18.208;2023-01-28T01:31:26;102345.53;;;3.44;56.23
21706;BME280;11014;53.076;18.208;2023-01-28T01:33:55;102349.75;;;3.47;56.44
21706;BME280;11014;53.076;18.208;2023-01-28T01:36:26;102342.19;;;3.42;56.58
21706;BME280;11014;53.076;18.208;2023-01-28T01:38:55;102349.19;;;3.43;56.45
21706;BME280;11014;53.076;18.208;2023-01-28T01:41:29;102341.91;;;3.45;56.59
21706;BME280;11014;53.076;18.208;2023-01-28T01:43:59;102338.28;;;3.46;56.49
21706;BME280;11014;53.076;18.208;2023-01-28T01:46:42;102338.28;;;3.46;56.46
21706;BME280;11014;53.076;18.208;2023-01-28T01:49:14;102338.28;;;3.46;56.65
21706;BME280;11014;53.076;18.208;2023-01-28T01:51:51;102338.56;;;3.43;56.63
21706;BME280;11014;53.076;18.208;2023-01-28T01:54:23;102342.88;;;3.44;56.64
21706;BME280;11014;53.076;18.208;2023-01-28T01:57:00;102342.59;;;3.47;56.73
21706;BME280;11014;53.076;18.208;2023-01-28T01:59:32;102342.03;;;3.53;56.57
21706;BME280;11014;53.076;18.208;2023-01-28T02:02:04;102337.41;;;3.55;56.63
21706;BME280;11014;53.076;18.208;2023-01-28T02:04:44;102346.38;;;3.54;56.40
21706;BME280;11014;53.076;18.208;2023-01-28T02:07:17;102348.63;;;3.49;56.67
21706;BME280;11014;53.076;18.208;2023-01-28T02:09:46;102335.75;;;3.45;56.74
21706;BME280;11014;53.076;18.208;2023-01-28T02:12:46;102339.38;;;3.53;56.74
21706;BME280;11014;53.076;18.208;2023-01-28T02:15:19;102336.31;;;3.48;56.57
21706;BME280;11014;53.076;18.208;2023-01-28T02:17:49;102330.44;;;3.54;56.47
21706;BME280;11014;53.076;18.208;2023-01-28T02:20:21;102322.84;;;3.59;56.67
21706;BME280;11014;53.076;18.208;2023-01-28T02:28:47;102337.94;;;3.69;56.11
21706;BME280;11014;53.076;18.208;2023-01-28T02:34:51;102337.69;;;3.62;56.36
21706;BME280;11014;53.076;18.208;2023-01-28T02:39:56;102332.31;;;3.72;56.19
21706;BME280;11014;53.076;18.208;2023-01-28T02:42:31;102330.66;;;3.71;56.04
21706;BME280;11014;53.076;18.208;2023-01-28T02:45:00;102332.63;;;3.69;55.75
21706;BME280;11014;53.076;18.208;2023-01-28T02:47:29;102333.44;;;3.69;55.97
21706;BME280;11014;53.076;18.208;2023-01-28T02:50:18;102335.97;;;3.71;55.54
21706;BME280;11014;53.076;18.208;2023-01-28T02:52:54;102329.13;;;3.68;55.64
21706;BME280;11014;53.076;18.208;2023-01-28T02:56:23;102323.38;;;3.73;55.82
21706;BME280;11014;53.076;18.208;2023-01-28T03:04:39;102317.22;;;3.72;55.77
21706;BME280;11014;53.076;18.208;2023-01-28T03:07:13;102323.09;;;3.76;55.68
21706;BME280;11014;53.076;18.208;2023-01-28T03:09:46;102328.41;;;3.76;55.86
21706;BME280;11014;53.076;18.208;2023-01-28T03:12:19;102325.06;;;3.74;55.74
21706;BME280;11014;53.076;18.208;2023-01-28T03:15:12;102333.44;;;3.79;55.62
21706;BME280;11014;53.076;18.208;2023-01-28T03:18:11;102328.81;;;3.81;55.49
21706;BME280;11014;53.076;18.208;2023-01-28T03:21:12;102327.28;;;3.78;55.53
21706;BME280;11014;53.076;18.208;2023-01-28T03:24:05;102320.59;;;3.74;55.85
21706;BME280;11014;53.076;18.208;2023-01-28T03:27:01;102324.50;;;3.80;55.71
21706;BME280;11014;53.076;18.208;2023-01-28T03:30:02;102326.16;;;3.81;55.42
21706;BME280;11014;53.076;18.208;2023-01-28T03:32:53;102325.00;;;3.83;55.80
21706;BME280;11014;53.076;18.208;2023-01-28T03:35:42;102330.34;;;3.83;55.83
21706;BME280;11014;53.076;18.208;2023-01-28T03:38:29;102329.19;;;3.86;55.50
21706;BME280;11014;53.076;18.208;2023-01-28T03:41:02;102325.19;;;3.82;55.74
21706;BME280;11014;53.076;18.208;2023-01-28T03:43:33;102335.34;;;3.96;55.82
21706;BME280;11014;53.076;18.208;2023-01-28T03:46:03;102331.34;;;3.82;55.82
21706;BME280;11014;53.076;18.208;2023-01-28T03:48:33;102331.19;;;3.84;55.89
21706;BME280;11014;53.076;18.208;2023-01-28T03:51:05;102337.91;;;3.88;55.84
21706;BME280;11014;53.076;18.208;2023-01-28T03:53:34;102342.09;;;3.90;55.64
21706;BME280;11014;53.076;18.208;2023-01-28T03:56:03;102345.41;;;3.92;55.79
21706;BME280;11014;53.076;18.208;2023-01-28T03:58:32;102344.28;;;3.95;55.78
21706;BME280;11014;53.076;18.208;2023-01-28T04:01:30;102339.94;;;3.94;55.65
21706;BME280;11014;53.076;18.208;2023-01-28T04:03:59;102341.91;;;3.92;55.69
21706;BME280;11014;53.076;18.208;2023-01-28T04:06:28;102345.97;;;3.96;56.00
21706;BME280;11014;53.076;18.208;2023-01-28T04:09:21;102347.06;;;4.03;55.74
21706;BME280;11014;53.076;18.208;2023-01-28T04:11:56;102338.94;;;4.04;55.57
21706;BME280;11014;53.076;18.208;2023-01-28T04:14:29;102339.75;;;4.05;55.49
21706;BME280;11014;53.076;18.208;2023-01-28T04:17:07;102352.38;;;4.03;55.36
21706;BME280;11014;53.076;18.208;2023-01-28T04:19:38;102346.91;;;4.04;55.75
21706;BME280;11014;53.076;18.208;2023-01-28T04:22:10;102346.09;;;4.04;55.54
21706;BME280;11014;53.076;18.208;2023-01-28T04:24:40;102345.25;;;4.03;55.52
21706;BME280;11014;53.076;18.208;2023-01-28T04:27:09;102343.44;;;4.04;55.76
21706;BME280;11014;53.076;18.208;2023-01-28T04:29:38;102338.94;;;4.04;55.47
21706;BME280;11014;53.076;18.208;2023-01-28T04:32:26;102336.13;;;4.06;55.68
21706;BME280;11014;53.076;18.208;2023-01-28T04:35:09;102338.63;;;4.07;55.72
21706;BME280;11014;53.076;18.208;2023-01-28T04:37:57;102333.56;;;4.14;55.58
21706;BME280;11014;53.076;18.208;2023-01-28T04:40:31;102337.75;;;4.16;55.72
21706;BME280;11014;53.076;18.208;2023-01-28T04:43:09;102338.31;;;4.20;55.86
21706;BME280;11014;53.076;18.208;2023-01-28T04:46:07;102345.00;;;4.24;55.66
21706;BME280;11014;53.076;18.208;2023-01-28T04:48:55;102343.06;;;4.26;55.69
21706;BME280;11014;53.076;18.208;2023-01-28T04:51:40;102344.28;;;4.32;55.38
21706;BME280;11014;53.076;18.208;2023-01-28T04:54:21;102349.84;;;4.38;55.16
21706;BME280;11014;53.076;18.208;2023-01-28T04:56:49;102344.69;;;4.37;55.16
21706;BME280;11014;53.076;18.208;2023-01-28T04:59:19;102345.38;;;4.29;55.58
21706;BME280;11014;53.076;18.208;2023-01-28T05:01:48;102349.47;;;4.24;55.81
21706;BME280;11014;53.076;18.208;2023-01-28T05:04:17;102350.31;;;4.24;55.73
21706;BME280;11014;53.076;18.208;2023-01-28T05:06:46;102357.88;;;4.29;55.88
21706;BME280;11014;53.076;18.208;2023-01-28T05:09:43;102361.63;;;4.36;55.60
21706;BME280;11014;53.076;18.208;2023-01-28T05:12:11;102357.59;;;4.32;55.60
21706;BME280;11014;53.076;18.208;2023-01-28T05:14:40;102355.91;;;4.31;55.38
21706;BME280;11014;53.076;18.208;2023-01-28T05:17:13;102359.53;;;4.30;55.31
21706;BME280;11014;53.076;18.208;2023-01-28T05:19:42;102365.31;;;4.25;55.19
21706;BME280;11014;53.076;18.208;2023-01-28T05:22:18;102362.66;;;4.25;55.22
21706;BME280;11014;53.076;18.208;2023-01-28T05:25:00;102361.69;;;4.26;55.32
21706;BME280;11014;53.076;18.208;2023-01-28T05:27:31;102369.66;;;4.26;55.26
21706;BME280;11014;53.076;18.208;2023-01-28T05:30:00;102366.84;;;4.28;55.14
21706;BME280;11014;53.076;18.208;2023-01-28T05:32:29;102368.41;;;4.21;55.20
21706;BME280;11014;53.076;18.208;2023-01-28T05:34:58;102368.31;;;4.12;55.64
21706;BME280;11014;53.076;18.208;2023-01-28T05:37:26;102371.38;;;4.08;55.66
21706;BME280;11014;53.076;18.208;2023-01-28T05:39:56;102372.22;;;4.08;55.77
21706;BME280;11014;53.076;18.208;2023-01-28T05:42:25;102371.38;;;4.08;55.72
21706;BME280;11014;53.076;18.208;2023-01-28T05:45:03;102373.06;;;4.09;55.82
21706;BME280;11014;53.076;18.208;2023-01-28T05:47:51;102378.94;;;4.12;55.56
21706;BME280;11014;53.076;18.208;2023-01-28T05:50:25;102382.03;;;4.08;55.69
21706;BME280;11014;53.076;18.208;2023-01-28T05:53:18;102381.06;;;4.09;55.66
21706;BME280;11014;53.076;18.208;2023-01-28T05:55:48;102375.34;;;4.04;55.79
21706;BME280;11014;53.076;18.208;2023-01-28T05:58:19;102384.44;;;4.01;55.47
21706;BME280;11014;53.076;18.208;2023-01-28T06:00:48;102375.75;;;3.99;55.58
21706;BME280;11014;53.076;18.208;2023-01-28T06:03:22;102378.69;;;4.06;55.59
21706;BME280;11014;53.076;18.208;2023-01-28T06:05:51;102377.25;;;4.11;55.55
21706;BME280;11014;53.076;18.208;2023-01-28T06:08:21;102379.09;;;4.11;55.37
21706;BME280;11014;53.076;18.208;2023-01-28T06:10:49;102381.06;;;4.09;55.39
21706;BME280;11014;53.076;18.208;2023-01-28T06:13:18;102381.19;;;4.07;55.38
21706;BME280;11014;53.076;18.208;2023-01-28T06:16:07;102388.34;;;4.07;55.63
21706;BME280;11014;53.076;18.208;2023-01-28T06:18:39;102387.06;;;4.11;55.41
21706;BME280;11014;53.076;18.208;2023-01-28T06:21:12;102393.47;;;4.18;55.58
21706;BME280;11014;53.076;18.208;2023-01-28T06:23:40;102398.66;;;4.19;55.04
21706;BME280;11014;53.076;18.208;2023-01-28T06:26:10;102396.53;;;4.23;55.22
21706;BME280;11014;53.076;18.208;2023-01-28T06:28:41;102396.25;;;4.26;55.00
21706;BME280;11014;53.076;18.208;2023-01-28T06:31:10;102392.47;;;4.19;54.78
21706;BME280;11014;53.076;18.208;2023-01-28T06:33:38;102392.38;;;4.11;54.72
21706;BME280;11014;53.076;18.208;2023-01-28T06:36:07;102392.66;;;4.08;54.97
21706;BME280;11014;53.076;18.208;2023-01-28T06:38:39;102396.53;;;4.23;54.80
21706;BME280;11014;53.076;18.208;2023-01-28T06:41:07;102402.72;;;4.14;54.99
21706;BME280;11014;53.076;18.208;2023-01-28T06:43:36;102405.97;;;4.08;54.93
21706;BME280;11014;53.076;18.208;2023-01-28T06:46:05;102410.31;;;4.09;54.83
21706;BME280;11014;53.076;18.208;2023-01-28T06:48:33;102417.00;;;4.13;54.83
21706;BME280;11014;53.076;18.208;2023-01-28T06:51:02;102409.41;;;4.18;55.09
21706;BME280;11014;53.076;18.208;2023-01-28T06:53:31;102409.13;;;4.21;54.99
21706;BME280;11014;53.076;18.208;2023-01-28T06:56:03;102415.78;;;4.35;54.97
21706;BME280;11014;53.076;18.208;2023-01-28T06:58:32;102407.47;;;4.20;54.57
21706;BME280;11014;53.076;18.208;2023-01-28T07:01:01;102406.06;;;4.16;54.77
21706;BME280;11014;53.076;18.208;2023-01-28T07:03:33;102414.66;;;4.37;54.76
21706;BME280;11014;53.076;18.208;2023-01-28T07:06:04;102412.63;;;4.31;54.56
21706;BME280;11014;53.076;18.208;2023-01-28T07:08:41;102412.63;;;4.31;54.70
21706;BME280;11014;53.076;18.208;2023-01-28T07:11:25;102420.16;;;4.36;54.60
21706;BME280;11014;53.076;18.208;2023-01-28T07:14:07;102404.34;;;4.34;54.73
21706;BME280;11014;53.076;18.208;2023-01-28T07:16:38;102406.25;;;4.42;54.73
21706;BME280;11014;53.076;18.208;2023-01-28T07:19:06;102416.47;;;4.46;54.69
21706;BME280;11014;53.076;18.208;2023-01-28T07:21:35;102415.59;;;4.55;54.49
21706;BME280;11014;53.076;18.208;2023-01-28T07:24:06;102421.47;;;4.59;54.41
21706;BME280;11014;53.076;18.208;2023-01-28T07:26:37;102421.19;;;4.79;54.42
21706;BME280;11014;53.076;18.208;2023-01-28T07:29:07;102422.06;;;4.70;54.24
21706;BME280;11014;53.076;18.208;2023-01-28T07:31:36;102417.03;;;4.67;53.91
21706;BME280;11014;53.076;18.208;2023-01-28T07:34:12;102429.94;;;4.72;53.84
21706;BME280;11014;53.076;18.208;2023-01-28T07:36:43;102427.09;;;4.73;53.92
21706;BME280;11014;53.076;18.208;2023-01-28T07:39:11;102428.50;;;4.77;53.77
21706;BME280;11014;53.076;18.208;2023-01-28T07:41:44;102430.16;;;4.78;53.77
21706;BME280;11014;53.076;18.208;2023-01-28T07:44:32;102417.00;;;4.77;54.15
21706;BME280;11014;53.076;18.208;2023-01-28T07:47:06;102421.50;;;4.76;54.30
21706;BME280;11014;53.076;18.208;2023-01-28T07:49:35;102419.78;;;4.75;54.18
21706;BME280;11014;53.076;18.208;2023-01-28T07:52:13;102417.00;;;4.77;54.26
21706;BME280;11014;53.076;18.208;2023-01-28T07:55:20;102424.53;;;4.82;53.97
21706;BME280;11014;53.076;18.208;2023-01-28T07:58:22;102432.53;;;4.82;54.17
21706;BME280;11014;53.076;18.208;2023-01-28T08:00:57;102424.81;;;4.78;54.33
21706;BME280;11014;53.076;18.208;2023-01-28T08:03:27;102420.06;;;4.82;54.50
21706;BME280;11014;53.076;18.208;2023-01-28T08:05:58;102421.97;;;4.90;53.99
21706;BME280;11014;53.076;18.208;2023-01-28T08:08:27;102423.34;;;4.94;53.89
21706;BME280;11014;53.076;18.208;2023-01-28T08:11:08;102425.56;;;4.98;53.63
21706;BME280;11014;53.076;18.208;2023-01-28T08:13:44;102429.22;;;4.97;53.51
21706;BME280;11014;53.076;18.208;2023-01-28T08:16:22;102431.88;;;4.97;53.34
21706;BME280;11014;53.076;18.208;2023-01-28T08:18:51;102427.06;;;5.01;53.22
21706;BME280;11014;53.076;18.208;2023-01-28T08:21:20;102426.09;;;5.02;53.21
21706;BME280;11014;53.076;18.208;2023-01-28T08:24:08;102427.63;;;5.04;53.37
21706;BME280;11014;53.076;18.208;2023-01-28T08:26:39;102422.44;;;5.03;53.09
21706;BME280;11014;53.076;18.208;2023-01-28T08:29:26;102421.16;;;5.07;53.33
21706;BME280;11014;53.076;18.208;2023-01-28T08:31:55;102423.22;;;5.13;53.32
21706;BME280;11014;53.076;18.208;2023-01-28T08:34:23;102423.44;;;5.19;53.29
21706;BME280;11014;53.076;18.208;2023-01-28T08:37:26;102424.72;;;5.33;53.16
21706;BME280;11014;53.076;18.208;2023-01-28T08:39:55;102421.25;;;5.32;53.11
21706;BME280;11014;53.076;18.208;2023-01-28T08:45:45;102430.78;;;5.35;52.68
21706;BME280;11014;53.076;18.208;2023-01-28T08:48:19;102433.13;;;5.38;52.31
21706;BME280;11014;53.076;18.208;2023-01-28T08:51:03;102428.47;;;5.40;52.15
21706;BME280;11014;53.076;18.208;2023-01-28T08:54:22;102432.91;;;5.49;51.79
21706;BME280;11014;53.076;18.208;2023-01-28T08:56:53;102422.97;;;5.42;51.95
21706;BME280;11014;53.076;18.208;2023-01-28T08:59:24;102427.34;;;5.43;51.85
21706;BME280;11014;53.076;18.208;2023-01-28T09:01:53;102433.50;;;5.43;51.63
21706;BME280;11014;53.076;18.208;2023-01-28T09:04:23;102431.53;;;5.45;51.54
21706;BME280;11014;53.076;18.208;2023-01-28T09:07:02;102419.03;;;5.46;51.31
21706;BME280;11014;53.076;18.208;2023-01-28T09:10:36;102425.94;;;5.56;51.63
21706;BME280;11014;53.076;18.208;2023-01-28T09:13:12;102418.09;;;5.55;51.37
21706;BME280;11014;53.076;18.208;2023-01-28T09:16:20;102427.41;;;5.51;51.38
21706;BME280;11014;53.076;18.208;2023-01-28T09:18:51;102432.56;;;5.52;51.56
21706;BME280;11014;53.076;18.208;2023-01-28T09:21:21;102421.91;;;5.52;51.18
21706;BME280;11014;53.076;18.208;2023-01-28T09:23:51;102418.09;;;5.55;51.45
21706;BME280;11014;53.076;18.208;2023-01-28T09:26:19;102425.09;;;5.56;51.34
21706;BME280;11014;53.076;18.208;2023-01-28T09:28:49;102419.66;;;5.57;51.31
21706;BME280;11014;53.076;18.208;2023-01-28T09:31:20;102423.97;;;5.58;51.18
21706;BME280;11014;53.076;18.208;2023-01-28T09:34:44;102424.63;;;5.60;51.01
21706;BME280;11014;53.076;18.208;2023-01-28T09:37:44;102417.28;;;5.54;50.89
21706;BME280;11014;53.076;18.208;2023-01-28T09:40:43;102417.34;;;5.62;51.07
21706;BME280;11014;53.076;18.208;2023-01-28T10:16:20;102423.25;;;5.74;50.37
21706;BME280;11014;53.076;18.208;2023-01-28T10:23:19;102414.81;;;5.78;50.44
21706;BME280;11014;53.076;18.208;2023-01-28T10:26:21;102426.63;;;5.76;50.62
21706;BME280;11014;53.076;18.208;2023-01-28T10:29:45;102421.41;;;5.74;49.77
21706;BME280;11014;53.076;18.208;2023-01-28T10:35:39;102418.31;;;5.61;48.77
21706;BME280;11014;53.076;18.208;2023-01-28T10:38:26;102419.00;;;5.63;48.24
21706;BME280;11014;53.076;18.208;2023-01-28T10:41:00;102423.03;;;5.67;48.79
21706;BME280;11014;53.076;18.208;2023-01-28T10:43:31;102416.56;;;5.70;48.27
21706;BME280;11014;53.076;18.208;2023-01-28T10:46:05;102415.25;;;5.74;47.91
21706;BME280;11014;53.076;18.208;2023-01-28T10:48:41;102419.06;;;5.71;47.83
21706;BME280;11014;53.076;18.208;2023-01-28T10:51:10;102421.38;;;5.66;48.10
21706;BME280;11014;53.076;18.208;2023-01-28T10:53:41;102423.88;;;5.68;47.79
21706;BME280;11014;53.076;18.208;2023-01-28T10:56:14;102423.88;;;5.68;47.87
21706;BME280;11014;53.076;18.208;2023-01-28T10:58:53;102417.41;;;5.70;47.68
21706;BME280;11014;53.076;18.208;2023-01-28T11:01:44;102421.06;;;5.69;47.01
21706;BME280;11014;53.076;18.208;2023-01-28T11:04:27;102422.75;;;5.70;47.42
21706;BME280;11014;53.076;18.208;2023-01-28T11:07:03;102421.00;;;5.61;47.20
21706;BME280;11014;53.076;18.208;2023-01-28T11:09:36;102419.31;;;5.60;47.37
21706;BME280;11014;53.076;18.208;2023-01-28T11:12:22;102410.50;;;5.60;47.20
21706;BME280;11014;53.076;18.208;2023-01-28T11:14:53;102412.75;;;5.55;47.38
21706;BME280;11014;53.076;18.208;2023-01-28T11:17:24;102415.91;;;5.50;47.11
21706;BME280;11014;53.076;18.208;2023-01-28T11:19:54;102411.66;;;5.57;47.19
21706;BME280;11014;53.076;18.208;2023-01-28T11:22:32;102413.53;;;5.65;46.87
21706;BME280;11014;53.076;18.208;2023-01-28T11:25:05;102409.03;;;5.65;46.87
21706;BME280;11014;53.076;18.208;2023-01-28T11:27:36;102406.75;;;5.70;46.92
21706;BME280;11014;53.076;18.208;2023-01-28T11:30:05;102396.75;;;5.72;47.16
21706;BME280;11014;53.076;18.208;2023-01-28T11:32:35;102397.72;;;5.71;46.81
21706;BME280;11014;53.076;18.208;2023-01-28T11:35:04;102401.72;;;5.67;46.31
21706;BME280;11014;53.076;18.208;2023-01-28T11:37:34;102403.72;;;5.65;46.24
21706;BME280;11014;53.076;18.208;2023-01-28T11:40:24;102396.69;;;5.64;46.38
21706;BME280;11014;53.076;18.208;2023-01-28T11:42:55;102397.66;;;5.63;46.35
21706;BME280;11014;53.076;18.208;2023-01-28T11:45:42;102398.69;;;5.62;46.51
21706;BME280;11014;53.076;18.208;2023-01-28T11:49:13;102397.41;;;5.49;46.99
21706;BME280;11014;53.076;18.208;2023-01-28T11:51:55;102401.47;;;5.35;47.29
21706;BME280;11014;53.076;18.208;2023-01-28T11:59:51;102390.81;;;5.35;47.42
21706;BME280;11014;53.076;18.208;2023-01-28T12:05:54;102397.94;;;5.17;46.84
21706;BME280;11014;53.076;18.208;2023-01-28T12:11:54;102380.97;;;5.18;46.86
21706;BME280;11014;53.076;18.208;2023-01-28T12:20:57;102388.56;;;4.95;46.91
21706;BME280;11014;53.076;18.208;2023-01-28T12:23:56;102372.66;;;4.86;47.38
21706;BME280;11014;53.076;18.208;2023-01-28T12:35:15;102376.47;;;5.01;46.94
21706;BME280;11014;53.076;18.208;2023-01-28T12:38:10;102372.84;;;5.02;46.62
21706;BME280;11014;53.076;18.208;2023-01-28T12:40:47;102368.84;;;5.06;46.61
21706;BME280;11014;53.076;18.208;2023-01-28T12:43:26;102379.22;;;5.09;46.63
21706;BME280;11014;53.076;18.208;2023-01-28T12:52:39;102378.91;;;5.12;45.71
21706;BME280;11014;53.076;18.208;2023-01-28T12:55:39;102377.63;;;5.16;45.98
21706;BME280;11014;53.076;18.208;2023-01-28T12:58:52;102386.31;;;5.18;46.14
21706;BME280;11014;53.076;18.208;2023-01-28T13:02:55;102384.25;;;5.12;45.92
21706;BME280;11014;53.076;18.208;2023-01-28T13:05:33;102384.16;;;5.04;46.00
21706;BME280;11014;53.076;18.208;2023-01-28T13:08:08;102391.47;;;5.02;46.18
21706;BME280;11014;53.076;18.208;2023-01-28T13:10:57;102385.13;;;5.03;46.36
21706;BME280;11014;53.076;18.208;2023-01-28T13:13:38;102384.47;;;5.01;46.40
21706;BME280;11014;53.076;18.208;2023-01-28T13:16:10;102377.06;;;4.95;46.08
21706;BME280;11014;53.076;18.208;2023-01-28T13:21:31;102371.38;;;5.07;45.21
21706;BME280;11014;53.076;18.208;2023-01-28T13:24:22;102361.63;;;4.98;45.88
21706;BME280;11014;53.076;18.208;2023-01-28T13:26:54;102362.78;;;4.96;46.23
21706;BME280;11014;53.076;18.208;2023-01-28T13:31:10;102366.06;;;5.07;45.95
21706;BME280;11014;53.076;18.208;2023-01-28T13:36:41;102368.34;;;5.02;45.30
21706;BME280;11014;53.076;18.208;2023-01-28T13:39:30;102366.41;;;4.95;45.01
21706;BME280;11014;53.076;18.208;2023-01-28T13:42:24;102359.44;;;4.94;45.16
21706;BME280;11014;53.076;18.208;2023-01-28T13:47:53;102374.41;;;4.95;45.09
21706;BME280;11014;53.076;18.208;2023-01-28T13:50:24;102369.94;;;4.95;45.17
21706;BME280;11014;53.076;18.208;2023-01-28T13:53:06;102370.09;;;4.94;44.90
21706;BME280;11014;53.076;18.208;2023-01-28T13:55:46;102372.91;;;5.10;45.09
21706;BME280;11014;53.076;18.208;2023-01-28T14:07:37;102369.56;;;5.08;45.55
21706;BME280;11014;53.076;18.208;2023-01-28T14:19:28;102379.06;;;4.93;45.87
21706;BME280;11014;53.076;18.208;2023-01-28T14:22:06;102370.38;;;4.91;45.79
21706;BME280;11014;53.076;18.208;2023-01-28T14:24:38;102364.22;;;4.90;46.03
21706;BME280;11014;53.076;18.208;2023-01-28T14:27:16;102361.72;;;4.89;45.80
21706;BME280;11014;53.076;18.208;2023-01-28T14:32:28;102370.47;;;4.99;46.38
21706;BME280;11014;53.076;18.208;2023-01-28T14:35:00;102375.88;;;5.07;46.43
21706;BME280;11014;53.076;18.208;2023-01-28T14:37:33;102365.53;;;5.04;46.12
21706;BME280;11014;53.076;18.208;2023-01-28T14:40:05;102363.53;;;5.06;46.55
21706;BME280;11014;53.076;18.208;2023-01-28T14:42:40;102350.94;;;5.08;46.98
21706;BME280;11014;53.076;18.208;2023-01-28T14:45:24;102350.63;;;5.11;46.82
21706;BME280;11014;53.076;18.208;2023-01-28T14:48:10;102346.81;;;5.13;46.05
21706;BME280;11014;53.076;18.208;2023-01-28T14:56:30;102342.69;;;5.19;45.68
21706;BME280;11014;53.076;18.208;2023-01-28T14:59:31;102342.69;;;5.19;45.72
21706;BME280;11014;53.076;18.208;2023-01-28T15:02:19;102335.16;;;5.14;45.58
21706;BME280;11014;53.076;18.208;2023-01-28T15:07:43;102337.69;;;5.16;46.04
21706;BME280;11014;53.076;18.208;2023-01-28T15:10:35;102348.34;;;5.16;46.16
21706;BME280;11014;53.076;18.208;2023-01-28T15:13:32;102346.34;;;5.18;46.18
21706;BME280;11014;53.076;18.208;2023-01-28T15:16:04;102336.28;;;5.12;46.06
21706;BME280;11014;53.076;18.208;2023-01-28T15:18:58;102332.94;;;5.10;46.46
21706;BME280;11014;53.076;18.208;2023-01-28T15:22:05;102320.25;;;5.04;46.92
21706;BME280;11014;53.076;18.208;2023-01-28T15:24:34;102327.84;;;4.99;46.87
21706;BME280;11014;53.076;18.208;2023-01-28T15:27:14;102322.00;;;4.95;47.10
21706;BME280;11014;53.076;18.208;2023-01-28T15:29:54;102319.13;;;4.89;47.53
21706;BME280;11014;53.076;18.208;2023-01-28T15:32:26;102308.78;;;4.86;47.49
21706;BME280;11014;53.076;18.208;2023-01-28T15:34:55;102306.38;;;5.00;47.31
21706;BME280;11014;53.076;18.208;2023-01-28T15:37:26;102306.09;;;4.86;47.53
21706;BME280;11014;53.076;18.208;2023-01-28T15:40:05;102307.09;;;4.85;48.08
21706;BME280;11014;53.076;18.208;2023-01-28T15:42:38;102307.38;;;4.82;48.37
21706;BME280;11014;53.076;18.208;2023-01-28T15:45:19;102297.66;;;4.72;48.73
21706;BME280;11014;53.076;18.208;2023-01-28T15:47:49;102293.25;;;4.63;48.51
21706;BME280;11014;53.076;18.208;2023-01-28T15:50:21;102291.84;;;4.59;49.06
21706;BME280;11014;53.076;18.208;2023-01-28T15:52:51;102292.16;;;4.56;49.10
21706;BME280;11014;53.076;18.208;2023-01-28T15:57:54;102299.25;;;4.65;49.22
21706;BME280;11014;53.076;18.208;2023-01-28T16:00:24;102293.91;;;4.48;49.61